sensor_id;sensor_type;location;lat;lon;timestamp;temperature;humidity
6252;DHT22;3159;52.414;9.784;2023-03-01T00:01:38;1.10;99.90
6252;DHT22;3159;52.414;9.784;2023-03-01T00:04:05;0.80;99.90
6252;DHT22;3159;52.414;9.784;2023-03-01T00:06:32;0.90;99.90
6252;DHT22;3159;52.414;9.784;2023-03-01T00:08:59;1.00;99.90
6252;DHT22;3159;52.414;9.784;2023-03-01T00:11:28;1.00;99.90
6252;DHT22;3159;52.414;9.784;2023-03-01T00:13:56;1.00;99.90
6252;DHT22;3159;52.414;9.784;2023-03-01T00:16:26;0.90;99.90
6252;DHT22;3159;52.414;9.784;2023-03-01T00:18:55;0.90;99.90
6252;DHT22;3159;52.414;9.784;2023-03-01T00:21:22;0.90;99.90
6252;DHT22;3159;52.414;9.784;2023-03-01T00:23:50;0.80;99.90
6252;DHT22;3159;52.414;9.784;2023-03-01T00:26:18;0.80;99.90
6252;DHT22;3159;52.414;9.784;2023-03-01T00:28:46;0.40;99.90
6252;DHT22;3159;52.414;9.784;2023-03-01T00:31:16;0.70;99.90
6252;DHT22;3159;52.414;9.784;2023-03-01T00:33:43;0.70;99.90
6252;DHT22;3159;52.414;9.784;2023-03-01T00:36:13;0.70;99.90
6252;DHT22;3159;52.414;9.784;2023-03-01T00:38:42;0.60;99.90
6252;DHT22;3159;52.414;9.784;2023-03-01T00:41:13;0.70;99.90
6252;DHT22;3159;52.414;9.784;2023-03-01T00:43:41;0.50;99.90
6252;DHT22;3159;52.414;9.784;2023-03-01T00:46:09;0.60;99.90
6252;DHT22;3159;52.414;9.784;2023-03-01T00:48:37;0.50;99.90
6252;DHT22;3159;52.414;9.784;2023-03-01T00:51:05;0.60;99.90
6252;DHT22;3159;52.414;9.784;2023-03-01T00:53:34;0.60;99.90
6252;DHT22;3159;52.414;9.784;2023-03-01T00:56:01;0.60;99.90
6252;DHT22;3159;52.414;9.784;2023-03-01T00:58:28;0.60;99.90
6252;DHT22;3159;52.414;9.784;2023-03-01T01:00:54;0.60;99.90
6252;DHT22;3159;52.414;9.784;2023-03-01T01:03:22;0.30;99.90
6252;DHT22;3159;52.414;9.784;2023-03-01T01:05:50;0.50;99.90
6252;DHT22;3159;52.414;9.784;2023-03-01T01:08:17;0.50;99.90
6252;DHT22;3159;52.414;9.784;2023-03-01T01:10:45;0.50;99.90
6252;DHT22;3159;52.414;9.784;2023-03-01T01:13:12;0.50;99.90
6252;DHT22;3159;52.414;9.784;2023-03-01T01:15:39;0.60;99.90
6252;DHT22;3159;52.414;9.784;2023-03-01T01:18:06;0.60;99.90
6252;DHT22;3159;52.414;9.784;2023-03-01T01:20:35;0.60;99.90
6252;DHT22;3159;52.414;9.784;2023-03-01T01:23:05;0.60;99.90
6252;DHT22;3159;52.414;9.784;2023-03-01T01:25:34;0.60;99.90
6252;DHT22;3159;52.414;9.784;2023-03-01T01:28:03;0.50;99.90
6252;DHT22;3159;52.414;9.784;2023-03-01T01:30:30;0.40;99.90
6252;DHT22;3159;52.414;9.784;2023-03-01T01:32:56;0.40;99.90
6252;DHT22;3159;52.414;9.784;2023-03-01T01:35:23;0.30;99.90
6252;DHT22;3159;52.414;9.784;2023-03-01T01:37:50;0.30;99.90
6252;DHT22;3159;52.414;9.784;2023-03-01T01:40:17;0.40;99.90
6252;DHT22;3159;52.414;9.784;2023-03-01T01:42:43;0.30;99.90
6252;DHT22;3159;52.414;9.784;2023-03-01T01:45:32;0.30;99.90
6252;DHT22;3159;52.414;9.784;2023-03-01T01:48:03;0.30;99.90
6252;DHT22;3159;52.414;9.784;2023-03-01T01:50:31;0.30;99.90
6252;DHT22;3159;52.414;9.784;2023-03-01T01:53:06;0.30;99.90
6252;DHT22;3159;52.414;9.784;2023-03-01T01:55:34;0.20;99.90
6252;DHT22;3159;52.414;9.784;2023-03-01T01:58:04;0.20;99.90
6252;DHT22;3159;52.414;9.784;2023-03-01T02:00:34;0.00;99.90
6252;DHT22;3159;52.414;9.784;2023-03-01T02:03:06;0.20;99.90
6252;DHT22;3159;52.414;9.784;2023-03-01T02:05:38;0.20;99.90
6252;DHT22;3159;52.414;9.784;2023-03-01T02:08:09;0.10;99.90
6252;DHT22;3159;52.414;9.784;2023-03-01T02:10:37;0.10;99.90
6252;DHT22;3159;52.414;9.784;2023-03-01T02:13:05;0.10;99.90
6252;DHT22;3159;52.414;9.784;2023-03-01T02:15:35;0.10;99.90
6252;DHT22;3159;52.414;9.784;2023-03-01T02:18:03;0.10;99.90
6252;DHT22;3159;52.414;9.784;2023-03-01T02:20:34;0.10;99.90
6252;DHT22;3159;52.414;9.784;2023-03-01T02:23:02;0.10;99.90
6252;DHT22;3159;52.414;9.784;2023-03-01T02:25:38;0.10;99.90
6252;DHT22;3159;52.414;9.784;2023-03-01T02:28:19;0.10;99.90
6252;DHT22;3159;52.414;9.784;2023-03-01T02:30:48;0.00;99.90
6252;DHT22;3159;52.414;9.784;2023-03-01T02:33:31;-0.10;99.90
6252;DHT22;3159;52.414;9.784;2023-03-01T02:36:03;0.00;99.90
6252;DHT22;3159;52.414;9.784;2023-03-01T02:38:32;0.00;99.90
6252;DHT22;3159;52.414;9.784;2023-03-01T02:40:59;-0.10;99.90
6252;DHT22;3159;52.414;9.784;2023-03-01T02:43:31;0.00;99.90
6252;DHT22;3159;52.414;9.784;2023-03-01T02:45:59;0.00;99.90
6252;DHT22;3159;52.414;9.784;2023-03-01T02:48:40;0.00;99.90
6252;DHT22;3159;52.414;9.784;2023-03-01T02:51:12;-0.10;99.90
6252;DHT22;3159;52.414;9.784;2023-03-01T02:53:53;-0.10;99.90
6252;DHT22;3159;52.414;9.784;2023-03-01T02:56:23;-0.10;99.90
6252;DHT22;3159;52.414;9.784;2023-03-01T02:58:51;-0.20;99.90
6252;DHT22;3159;52.414;9.784;2023-03-01T03:01:19;-0.20;99.90
6252;DHT22;3159;52.414;9.784;2023-03-01T03:03:46;-0.30;99.90
6252;DHT22;3159;52.414;9.784;2023-03-01T03:06:13;-0.20;99.90
6252;DHT22;3159;52.414;9.784;2023-03-01T03:08:39;-0.20;99.90
6252;DHT22;3159;52.414;9.784;2023-03-01T03:11:06;-0.30;99.90
6252;DHT22;3159;52.414;9.784;2023-03-01T03:13:33;-0.30;99.90
6252;DHT22;3159;52.414;9.784;2023-03-01T03:16:02;-0.30;99.90
6252;DHT22;3159;52.414;9.784;2023-03-01T03:18:30;-0.30;99.90
6252;DHT22;3159;52.414;9.784;2023-03-01T03:20:56;-0.30;99.90
6252;DHT22;3159;52.414;9.784;2023-03-01T03:23:24;-0.30;99.90
6252;DHT22;3159;52.414;9.784;2023-03-01T03:25:51;-0.30;99.90
6252;DHT22;3159;52.414;9.784;2023-03-01T03:28:18;-0.30;99.90
6252;DHT22;3159;52.414;9.784;2023-03-01T03:30:45;-0.30;99.90
6252;DHT22;3159;52.414;9.784;2023-03-01T03:33:13;-0.30;99.90
6252;DHT22;3159;52.414;9.784;2023-03-01T03:35:43;-0.40;99.90
6252;DHT22;3159;52.414;9.784;2023-03-01T03:38:11;-0.30;99.90
6252;DHT22;3159;52.414;9.784;2023-03-01T03:40:43;-0.30;99.90
6252;DHT22;3159;52.414;9.784;2023-03-01T03:43:13;-0.40;99.90
6252;DHT22;3159;52.414;9.784;2023-03-01T03:45:40;-0.40;99.90
6252;DHT22;3159;52.414;9.784;2023-03-01T03:48:09;-0.50;99.90
6252;DHT22;3159;52.414;9.784;2023-03-01T03:50:38;-0.50;99.90
6252;DHT22;3159;52.414;9.784;2023-03-01T03:53:07;-0.50;99.90
6252;DHT22;3159;52.414;9.784;2023-03-01T03:55:34;-0.50;99.90
6252;DHT22;3159;52.414;9.784;2023-03-01T03:58:06;-0.50;99.90
6252;DHT22;3159;52.414;9.784;2023-03-01T04:00:34;-0.50;99.90
6252;DHT22;3159;52.414;9.784;2023-03-01T04:03:01;-0.50;99.90
6252;DHT22;3159;52.414;9.784;2023-03-01T04:05:28;-0.40;99.90
6252;DHT22;3159;52.414;9.784;2023-03-01T04:07:57;-0.50;99.90
6252;DHT22;3159;52.414;9.784;2023-03-01T04:10:33;-0.50;99.90
6252;DHT22;3159;52.414;9.784;2023-03-01T04:13:00;-0.60;99.90
6252;DHT22;3159;52.414;9.784;2023-03-01T04:15:27;-0.50;99.90
6252;DHT22;3159;52.414;9.784;2023-03-01T04:17:55;-0.70;99.90
6252;DHT22;3159;52.414;9.784;2023-03-01T04:20:24;-0.60;99.90
6252;DHT22;3159;52.414;9.784;2023-03-01T04:22:51;-0.60;99.90
6252;DHT22;3159;52.414;9.784;2023-03-01T04:25:20;-0.60;99.90
6252;DHT22;3159;52.414;9.784;2023-03-01T04:27:47;-0.60;99.90
6252;DHT22;3159;52.414;9.784;2023-03-01T04:30:14;-0.60;99.90
6252;DHT22;3159;52.414;9.784;2023-03-01T04:32:41;-0.80;99.90
6252;DHT22;3159;52.414;9.784;2023-03-01T04:35:08;-0.70;99.90
6252;DHT22;3159;52.414;9.784;2023-03-01T04:37:35;-0.70;99.90
6252;DHT22;3159;52.414;9.784;2023-03-01T04:40:02;-0.70;99.90
6252;DHT22;3159;52.414;9.784;2023-03-01T04:42:39;-0.60;99.90
6252;DHT22;3159;52.414;9.784;2023-03-01T04:45:06;-0.60;99.90
6252;DHT22;3159;52.414;9.784;2023-03-01T04:47:38;-0.70;99.90
6252;DHT22;3159;52.414;9.784;2023-03-01T04:50:06;-0.70;99.90
6252;DHT22;3159;52.414;9.784;2023-03-01T04:52:33;-0.70;99.90
6252;DHT22;3159;52.414;9.784;2023-03-01T04:55:00;-0.70;99.90
6252;DHT22;3159;52.414;9.784;2023-03-01T04:57:27;-0.80;99.90
6252;DHT22;3159;52.414;9.784;2023-03-01T04:59:55;-0.80;99.90
6252;DHT22;3159;52.414;9.784;2023-03-01T05:02:22;-0.70;99.90
6252;DHT22;3159;52.414;9.784;2023-03-01T05:04:49;-0.80;99.90
6252;DHT22;3159;52.414;9.784;2023-03-01T05:07:16;-0.80;99.90
6252;DHT22;3159;52.414;9.784;2023-03-01T05:09:45;-0.80;99.90
6252;DHT22;3159;52.414;9.784;2023-03-01T05:12:11;-0.80;99.90
6252;DHT22;3159;52.414;9.784;2023-03-01T05:14:38;-0.90;99.90
6252;DHT22;3159;52.414;9.784;2023-03-01T05:17:07;-0.90;99.90
6252;DHT22;3159;52.414;9.784;2023-03-01T05:19:34;-0.90;99.90
6252;DHT22;3159;52.414;9.784;2023-03-01T05:22:01;-1.00;99.90
6252;DHT22;3159;52.414;9.784;2023-03-01T05:24:30;-0.90;99.90
6252;DHT22;3159;52.414;9.784;2023-03-01T05:26:57;-0.90;99.90
6252;DHT22;3159;52.414;9.784;2023-03-01T05:29:25;-0.90;99.90
6252;DHT22;3159;52.414;9.784;2023-03-01T05:31:53;-0.90;99.90
6252;DHT22;3159;52.414;9.784;2023-03-01T05:34:25;-0.90;99.90
6252;DHT22;3159;52.414;9.784;2023-03-01T05:36:52;-1.00;99.90
6252;DHT22;3159;52.414;9.784;2023-03-01T05:39:20;-1.00;99.90
6252;DHT22;3159;52.414;9.784;2023-03-01T05:41:48;-1.00;99.90
6252;DHT22;3159;52.414;9.784;2023-03-01T05:44:14;-1.00;99.90
6252;DHT22;3159;52.414;9.784;2023-03-01T05:46:41;-1.00;99.90
6252;DHT22;3159;52.414;9.784;2023-03-01T05:49:08;-1.00;99.90
6252;DHT22;3159;52.414;9.784;2023-03-01T05:51:36;-1.00;99.90
6252;DHT22;3159;52.414;9.784;2023-03-01T05:54:03;-1.00;99.90
6252;DHT22;3159;52.414;9.784;2023-03-01T05:56:32;-1.10;99.90
6252;DHT22;3159;52.414;9.784;2023-03-01T05:58:59;-1.10;99.90
6252;DHT22;3159;52.414;9.784;2023-03-01T06:01:26;-1.10;99.90
6252;DHT22;3159;52.414;9.784;2023-03-01T06:03:53;-1.00;99.90
6252;DHT22;3159;52.414;9.784;2023-03-01T06:06:20;-1.10;99.90
6252;DHT22;3159;52.414;9.784;2023-03-01T06:08:48;-1.10;99.90
6252;DHT22;3159;52.414;9.784;2023-03-01T06:11:15;-1.00;99.90
6252;DHT22;3159;52.414;9.784;2023-03-01T06:13:42;-1.00;99.90
6252;DHT22;3159;52.414;9.784;2023-03-01T06:16:09;-1.10;99.90
6252;DHT22;3159;52.414;9.784;2023-03-01T06:18:37;-1.10;99.90
6252;DHT22;3159;52.414;9.784;2023-03-01T06:21:05;-1.10;99.90
6252;DHT22;3159;52.414;9.784;2023-03-01T06:23:32;-1.10;99.90
6252;DHT22;3159;52.414;9.784;2023-03-01T06:26:04;-1.10;99.90
6252;DHT22;3159;52.414;9.784;2023-03-01T06:28:31;-1.20;99.90
6252;DHT22;3159;52.414;9.784;2023-03-01T06:30:58;-1.10;99.90
6252;DHT22;3159;52.414;9.784;2023-03-01T06:33:24;-1.10;99.90
6252;DHT22;3159;52.414;9.784;2023-03-01T06:35:53;-1.20;99.90
6252;DHT22;3159;52.414;9.784;2023-03-01T06:38:20;-1.10;99.90
6252;DHT22;3159;52.414;9.784;2023-03-01T06:40:51;-1.00;99.90
6252;DHT22;3159;52.414;9.784;2023-03-01T06:43:19;-1.00;99.90
6252;DHT22;3159;52.414;9.784;2023-03-01T06:45:46;-1.00;99.90
6252;DHT22;3159;52.414;9.784;2023-03-01T06:48:13;-1.00;99.90
6252;DHT22;3159;52.414;9.784;2023-03-01T06:50:40;-1.00;99.90
6252;DHT22;3159;52.414;9.784;2023-03-01T06:53:06;-1.10;99.90
6252;DHT22;3159;52.414;9.784;2023-03-01T06:55:33;-1.00;99.90
6252;DHT22;3159;52.414;9.784;2023-03-01T06:58:01;-0.90;99.90
6252;DHT22;3159;52.414;9.784;2023-03-01T07:00:30;-0.80;99.90
6252;DHT22;3159;52.414;9.784;2023-03-01T07:02:59;-0.60;99.90
6252;DHT22;3159;52.414;9.784;2023-03-01T07:05:27;-0.40;99.90
6252;DHT22;3159;52.414;9.784;2023-03-01T07:07:54;-0.20;99.90
6252;DHT22;3159;52.414;9.784;2023-03-01T07:10:22;-0.10;99.90
6252;DHT22;3159;52.414;9.784;2023-03-01T07:12:48;0.30;99.90
6252;DHT22;3159;52.414;9.784;2023-03-01T07:15:15;0.10;99.90
6252;DHT22;3159;52.414;9.784;2023-03-01T07:17:43;0.10;99.90
6252;DHT22;3159;52.414;9.784;2023-03-01T07:20:13;-0.10;99.90
6252;DHT22;3159;52.414;9.784;2023-03-01T07:22:41;0.10;99.90
6252;DHT22;3159;52.414;9.784;2023-03-01T07:25:08;0.30;99.90
6252;DHT22;3159;52.414;9.784;2023-03-01T07:27:36;0.60;99.90
6252;DHT22;3159;52.414;9.784;2023-03-01T07:30:03;0.90;99.90
6252;DHT22;3159;52.414;9.784;2023-03-01T07:32:30;1.20;99.90
6252;DHT22;3159;52.414;9.784;2023-03-01T07:34:58;1.30;99.90
6252;DHT22;3159;52.414;9.784;2023-03-01T07:37:25;1.80;99.90
6252;DHT22;3159;52.414;9.784;2023-03-01T07:39:52;1.70;99.90
6252;DHT22;3159;52.414;9.784;2023-03-01T07:42:19;2.20;99.90
6252;DHT22;3159;52.414;9.784;2023-03-01T07:44:45;2.40;99.90
6252;DHT22;3159;52.414;9.784;2023-03-01T07:47:12;2.10;99.90
6252;DHT22;3159;52.414;9.784;2023-03-01T07:49:39;2.10;99.90
6252;DHT22;3159;52.414;9.784;2023-03-01T07:52:09;2.40;99.90
6252;DHT22;3159;52.414;9.784;2023-03-01T07:54:36;2.80;99.90
6252;DHT22;3159;52.414;9.784;2023-03-01T07:57:03;3.10;99.90
6252;DHT22;3159;52.414;9.784;2023-03-01T07:59:30;3.50;99.90
6252;DHT22;3159;52.414;9.784;2023-03-01T08:01:57;3.10;99.90
6252;DHT22;3159;52.414;9.784;2023-03-01T08:04:24;3.60;99.90
6252;DHT22;3159;52.414;9.784;2023-03-01T08:06:52;3.80;99.90
6252;DHT22;3159;52.414;9.784;2023-03-01T08:09:20;4.10;99.90
6252;DHT22;3159;52.414;9.784;2023-03-01T08:11:47;4.00;99.90
6252;DHT22;3159;52.414;9.784;2023-03-01T08:14:14;4.60;99.90
6252;DHT22;3159;52.414;9.784;2023-03-01T08:16:41;4.50;99.90
6252;DHT22;3159;52.414;9.784;2023-03-01T08:19:09;4.60;99.90
6252;DHT22;3159;52.414;9.784;2023-03-01T08:21:36;5.00;99.90
6252;DHT22;3159;52.414;9.784;2023-03-01T08:24:04;5.00;99.90
6252;DHT22;3159;52.414;9.784;2023-03-01T08:26:33;5.10;99.90
6252;DHT22;3159;52.414;9.784;2023-03-01T08:29:00;5.00;99.90
6252;DHT22;3159;52.414;9.784;2023-03-01T08:31:29;5.40;99.90
6252;DHT22;3159;52.414;9.784;2023-03-01T08:33:57;5.50;99.90
6252;DHT22;3159;52.414;9.784;2023-03-01T08:36:26;5.40;99.90
6252;DHT22;3159;52.414;9.784;2023-03-01T08:38:53;5.80;99.90
6252;DHT22;3159;52.414;9.784;2023-03-01T08:41:20;6.00;99.90
6252;DHT22;3159;52.414;9.784;2023-03-01T08:43:49;6.20;99.90
6252;DHT22;3159;52.414;9.784;2023-03-01T08:46:16;6.50;99.90
6252;DHT22;3159;52.414;9.784;2023-03-01T08:48:42;6.90;99.90
6252;DHT22;3159;52.414;9.784;2023-03-01T08:51:11;7.20;99.90
6252;DHT22;3159;52.414;9.784;2023-03-01T08:53:38;7.40;99.90
6252;DHT22;3159;52.414;9.784;2023-03-01T08:56:05;7.50;99.90
6252;DHT22;3159;52.414;9.784;2023-03-01T08:58:32;7.60;99.90
6252;DHT22;3159;52.414;9.784;2023-03-01T09:01:06;7.50;99.90
6252;DHT22;3159;52.414;9.784;2023-03-01T09:03:32;7.40;99.90
6252;DHT22;3159;52.414;9.784;2023-03-01T09:06:00;7.40;99.90
6252;DHT22;3159;52.414;9.784;2023-03-01T09:08:27;7.90;99.90
6252;DHT22;3159;52.414;9.784;2023-03-01T09:10:54;7.30;99.90
6252;DHT22;3159;52.414;9.784;2023-03-01T09:13:21;7.60;99.90
6252;DHT22;3159;52.414;9.784;2023-03-01T09:15:49;7.70;99.90
6252;DHT22;3159;52.414;9.784;2023-03-01T09:18:17;7.40;99.90
6252;DHT22;3159;52.414;9.784;2023-03-01T09:20:44;7.70;99.90
6252;DHT22;3159;52.414;9.784;2023-03-01T09:23:10;8.00;99.90
6252;DHT22;3159;52.414;9.784;2023-03-01T09:25:37;7.80;99.90
6252;DHT22;3159;52.414;9.784;2023-03-01T09:28:04;8.10;99.90
6252;DHT22;3159;52.414;9.784;2023-03-01T09:30:31;8.10;99.90
6252;DHT22;3159;52.414;9.784;2023-03-01T09:32:58;7.50;99.90
6252;DHT22;3159;52.414;9.784;2023-03-01T09:35:26;8.00;99.90
6252;DHT22;3159;52.414;9.784;2023-03-01T09:37:53;8.30;99.90
6252;DHT22;3159;52.414;9.784;2023-03-01T09:40:22;8.60;99.90
6252;DHT22;3159;52.414;9.784;2023-03-01T09:42:53;8.50;99.90
6252;DHT22;3159;52.414;9.784;2023-03-01T09:45:27;8.50;99.90
6252;DHT22;3159;52.414;9.784;2023-03-01T09:47:55;9.20;99.90
6252;DHT22;3159;52.414;9.784;2023-03-01T09:50:23;9.30;99.90
6252;DHT22;3159;52.414;9.784;2023-03-01T09:52:58;9.40;99.90
6252;DHT22;3159;52.414;9.784;2023-03-01T09:55:30;9.60;99.90
6252;DHT22;3159;52.414;9.784;2023-03-01T09:58:04;9.70;99.90
6252;DHT22;3159;52.414;9.784;2023-03-01T10:00:38;9.20;99.90
6252;DHT22;3159;52.414;9.784;2023-03-01T10:03:17;9.80;99.90
6252;DHT22;3159;52.414;9.784;2023-03-01T10:05:56;9.90;99.90
6252;DHT22;3159;52.414;9.784;2023-03-01T10:08:34;10.30;99.90
6252;DHT22;3159;52.414;9.784;2023-03-01T10:11:05;10.00;99.90
6252;DHT22;3159;52.414;9.784;2023-03-01T10:13:46;10.20;99.90
6252;DHT22;3159;52.414;9.784;2023-03-01T10:16:22;9.60;99.90
6252;DHT22;3159;52.414;9.784;2023-03-01T10:18:53;10.20;99.90
6252;DHT22;3159;52.414;9.784;2023-03-01T10:21:22;9.90;99.90
6252;DHT22;3159;52.414;9.784;2023-03-01T10:23:51;10.10;99.90
6252;DHT22;3159;52.414;9.784;2023-03-01T10:26:36;10.00;99.90
6252;DHT22;3159;52.414;9.784;2023-03-01T10:29:07;10.20;99.90
6252;DHT22;3159;52.414;9.784;2023-03-01T10:31:39;10.30;99.90
6252;DHT22;3159;52.414;9.784;2023-03-01T10:34:10;10.40;99.90
6252;DHT22;3159;52.414;9.784;2023-03-01T10:36:39;10.00;99.90
6252;DHT22;3159;52.414;9.784;2023-03-01T10:39:15;9.70;99.90
6252;DHT22;3159;52.414;9.784;2023-03-01T10:41:59;9.90;99.90
6252;DHT22;3159;52.414;9.784;2023-03-01T10:44:43;10.30;99.90
6252;DHT22;3159;52.414;9.784;2023-03-01T10:47:15;10.60;99.90
6252;DHT22;3159;52.414;9.784;2023-03-01T10:49:57;10.60;99.90
6252;DHT22;3159;52.414;9.784;2023-03-01T10:52:28;9.70;99.90
6252;DHT22;3159;52.414;9.784;2023-03-01T10:54:58;10.20;99.90
6252;DHT22;3159;52.414;9.784;2023-03-01T10:57:32;10.50;99.90
6252;DHT22;3159;52.414;9.784;2023-03-01T11:00:15;10.50;99.90
6252;DHT22;3159;52.414;9.784;2023-03-01T11:02:43;10.30;99.90
6252;DHT22;3159;52.414;9.784;2023-03-01T11:05:20;10.20;99.90
6252;DHT22;3159;52.414;9.784;2023-03-01T11:07:51;10.60;99.90
6252;DHT22;3159;52.414;9.784;2023-03-01T11:10:21;10.00;99.90
6252;DHT22;3159;52.414;9.784;2023-03-01T11:12:48;10.00;99.90
6252;DHT22;3159;52.414;9.784;2023-03-01T11:15:25;10.30;99.90
6252;DHT22;3159;52.414;9.784;2023-03-01T11:17:53;10.10;99.90
6252;DHT22;3159;52.414;9.784;2023-03-01T11:20:26;10.10;99.90
6252;DHT22;3159;52.414;9.784;2023-03-01T11:22:54;10.30;99.90
6252;DHT22;3159;52.414;9.784;2023-03-01T11:25:26;9.60;99.90
6252;DHT22;3159;52.414;9.784;2023-03-01T11:27:54;10.00;99.90
6252;DHT22;3159;52.414;9.784;2023-03-01T11:30:25;9.60;99.90
6252;DHT22;3159;52.414;9.784;2023-03-01T11:33:03;9.90;99.90
6252;DHT22;3159;52.414;9.784;2023-03-01T11:35:32;9.60;99.90
6252;DHT22;3159;52.414;9.784;2023-03-01T11:38:09;9.30;99.90
6252;DHT22;3159;52.414;9.784;2023-03-01T11:40:46;9.20;99.90
6252;DHT22;3159;52.414;9.784;2023-03-01T11:43:19;9.60;99.90
6252;DHT22;3159;52.414;9.784;2023-03-01T11:46:08;9.30;99.90
6252;DHT22;3159;52.414;9.784;2023-03-01T11:48:50;9.20;99.90
6252;DHT22;3159;52.414;9.784;2023-03-01T11:51:24;8.80;99.90
6252;DHT22;3159;52.414;9.784;2023-03-01T11:54:03;8.70;99.90
6252;DHT22;3159;52.414;9.784;2023-03-01T11:56:35;8.80;99.90
6252;DHT22;3159;52.414;9.784;2023-03-01T11:59:24;8.80;99.90
6252;DHT22;3159;52.414;9.784;2023-03-01T12:02:09;8.50;99.90
6252;DHT22;3159;52.414;9.784;2023-03-01T12:07:41;8.20;99.90
6252;DHT22;3159;52.414;9.784;2023-03-01T12:10:21;8.00;99.90
6252;DHT22;3159;52.414;9.784;2023-03-01T12:13:04;8.10;99.90
6252;DHT22;3159;52.414;9.784;2023-03-01T12:16:03;7.40;99.90
6252;DHT22;3159;52.414;9.784;2023-03-01T12:18:48;7.70;99.90
6252;DHT22;3159;52.414;9.784;2023-03-01T12:21:30;7.60;99.90
6252;DHT22;3159;52.414;9.784;2023-03-01T12:24:22;7.30;99.90
6252;DHT22;3159;52.414;9.784;2023-03-01T12:27:07;7.30;99.90
6252;DHT22;3159;52.414;9.784;2023-03-01T12:29:46;7.40;99.90
6252;DHT22;3159;52.414;9.784;2023-03-01T12:32:22;7.20;99.90
6252;DHT22;3159;52.414;9.784;2023-03-01T12:35:00;7.30;99.90
6252;DHT22;3159;52.414;9.784;2023-03-01T12:37:39;7.30;99.90
6252;DHT22;3159;52.414;9.784;2023-03-01T12:40:42;7.20;99.90
6252;DHT22;3159;52.414;9.784;2023-03-01T12:43:21;7.30;99.90
6252;DHT22;3159;52.414;9.784;2023-03-01T12:46:01;7.50;99.90
6252;DHT22;3159;52.414;9.784;2023-03-01T12:48:39;7.30;99.90
6252;DHT22;3159;52.414;9.784;2023-03-01T12:51:10;6.90;99.90
6252;DHT22;3159;52.414;9.784;2023-03-01T12:53:41;7.30;99.90
6252;DHT22;3159;52.414;9.784;2023-03-01T12:56:11;7.60;99.90
6252;DHT22;3159;52.414;9.784;2023-03-01T12:58:53;7.80;99.90
6252;DHT22;3159;52.414;9.784;2023-03-01T13:01:35;7.90;99.90
6252;DHT22;3159;52.414;9.784;2023-03-01T13:04:13;8.00;99.90
6252;DHT22;3159;52.414;9.784;2023-03-01T13:06:47;8.30;99.90
6252;DHT22;3159;52.414;9.784;2023-03-01T13:09:23;8.30;99.90
6252;DHT22;3159;52.414;9.784;2023-03-01T13:11:51;8.50;99.90
6252;DHT22;3159;52.414;9.784;2023-03-01T13:17:33;8.70;99.90
6252;DHT22;3159;52.414;9.784;2023-03-01T13:20:13;9.00;99.90
6252;DHT22;3159;52.414;9.784;2023-03-01T13:22:40;9.30;99.90
6252;DHT22;3159;52.414;9.784;2023-03-01T13:25:16;9.20;99.90
6252;DHT22;3159;52.414;9.784;2023-03-01T13:27:45;9.20;99.90
6252;DHT22;3159;52.414;9.784;2023-03-01T13:30:42;9.70;99.90
6252;DHT22;3159;52.414;9.784;2023-03-01T13:33:37;9.40;99.90
6252;DHT22;3159;52.414;9.784;2023-03-01T13:36:07;9.90;99.90
6252;DHT22;3159;52.414;9.784;2023-03-01T13:38:38;9.60;99.90
6252;DHT22;3159;52.414;9.784;2023-03-01T13:41:07;9.70;99.90
6252;DHT22;3159;52.414;9.784;2023-03-01T13:43:35;9.40;99.90
6252;DHT22;3159;52.414;9.784;2023-03-01T13:46:08;9.20;99.90
6252;DHT22;3159;52.414;9.784;2023-03-01T13:48:38;8.80;99.90
6252;DHT22;3159;52.414;9.784;2023-03-01T13:51:08;9.30;99.90
6252;DHT22;3159;52.414;9.784;2023-03-01T13:53:40;9.30;99.90
6252;DHT22;3159;52.414;9.784;2023-03-01T13:56:10;10.10;99.90
6252;DHT22;3159;52.414;9.784;2023-03-01T13:58:53;10.40;99.90
6252;DHT22;3159;52.414;9.784;2023-03-01T14:01:23;11.00;99.90
6252;DHT22;3159;52.414;9.784;2023-03-01T14:03:52;11.20;99.90
6252;DHT22;3159;52.414;9.784;2023-03-01T14:06:21;9.70;99.90
6252;DHT22;3159;52.414;9.784;2023-03-01T14:08:50;9.20;99.90
6252;DHT22;3159;52.414;9.784;2023-03-01T14:14:34;10.70;99.90
6252;DHT22;3159;52.414;9.784;2023-03-01T14:17:15;11.00;99.90
6252;DHT22;3159;52.414;9.784;2023-03-01T14:19:47;11.30;99.90
6252;DHT22;3159;52.414;9.784;2023-03-01T14:22:19;10.60;99.90
6252;DHT22;3159;52.414;9.784;2023-03-01T14:24:48;11.20;99.90
6252;DHT22;3159;52.414;9.784;2023-03-01T14:27:16;11.80;99.90
6252;DHT22;3159;52.414;9.784;2023-03-01T14:29:43;11.70;99.90
6252;DHT22;3159;52.414;9.784;2023-03-01T14:32:17;11.80;99.90
6252;DHT22;3159;52.414;9.784;2023-03-01T14:34:48;11.50;99.90
6252;DHT22;3159;52.414;9.784;2023-03-01T14:37:20;10.90;99.90
6252;DHT22;3159;52.414;9.784;2023-03-01T14:39:48;10.80;99.90
6252;DHT22;3159;52.414;9.784;2023-03-01T14:42:15;10.90;99.90
6252;DHT22;3159;52.414;9.784;2023-03-01T14:44:44;11.10;99.90
6252;DHT22;3159;52.414;9.784;2023-03-01T14:47:14;11.50;99.90
6252;DHT22;3159;52.414;9.784;2023-03-01T14:49:42;11.70;99.90
6252;DHT22;3159;52.414;9.784;2023-03-01T14:52:18;10.80;99.90
6252;DHT22;3159;52.414;9.784;2023-03-01T14:54:48;10.10;99.90
6252;DHT22;3159;52.414;9.784;2023-03-01T14:57:20;10.10;99.90
6252;DHT22;3159;52.414;9.784;2023-03-01T14:59:49;10.90;99.90
6252;DHT22;3159;52.414;9.784;2023-03-01T15:02:20;10.70;99.90
6252;DHT22;3159;52.414;9.784;2023-03-01T15:04:51;10.40;99.90
6252;DHT22;3159;52.414;9.784;2023-03-01T15:07:19;10.00;99.90
6252;DHT22;3159;52.414;9.784;2023-03-01T15:09:47;10.10;99.90
6252;DHT22;3159;52.414;9.784;2023-03-01T15:12:37;10.20;99.90
6252;DHT22;3159;52.414;9.784;2023-03-01T15:15:40;10.10;99.90
6252;DHT22;3159;52.414;9.784;2023-03-01T15:18:15;10.30;99.90
6252;DHT22;3159;52.414;9.784;2023-03-01T15:20:43;10.60;99.90
6252;DHT22;3159;52.414;9.784;2023-03-01T15:23:20;10.70;99.90
6252;DHT22;3159;52.414;9.784;2023-03-01T15:25:48;10.20;99.90
6252;DHT22;3159;52.414;9.784;2023-03-01T15:28:23;9.60;99.90
6252;DHT22;3159;52.414;9.784;2023-03-01T15:31:00;9.70;99.90
6252;DHT22;3159;52.414;9.784;2023-03-01T15:33:31;9.70;99.90
6252;DHT22;3159;52.414;9.784;2023-03-01T15:35:59;9.40;99.90
6252;DHT22;3159;52.414;9.784;2023-03-01T15:38:30;9.60;99.90
6252;DHT22;3159;52.414;9.784;2023-03-01T15:41:00;9.20;99.90
6252;DHT22;3159;52.414;9.784;2023-03-01T15:43:38;9.10;99.90
6252;DHT22;3159;52.414;9.784;2023-03-01T15:46:20;9.10;99.90
6252;DHT22;3159;52.414;9.784;2023-03-01T15:48:48;9.20;99.90
6252;DHT22;3159;52.414;9.784;2023-03-01T15:51:16;9.30;99.90
6252;DHT22;3159;52.414;9.784;2023-03-01T15:53:49;9.00;99.90
6252;DHT22;3159;52.414;9.784;2023-03-01T15:56:16;9.00;99.90
6252;DHT22;3159;52.414;9.784;2023-03-01T15:58:43;8.90;99.90
6252;DHT22;3159;52.414;9.784;2023-03-01T16:01:12;8.40;99.90
6252;DHT22;3159;52.414;9.784;2023-03-01T16:03:39;8.40;99.90
6252;DHT22;3159;52.414;9.784;2023-03-01T16:06:09;8.40;99.90
6252;DHT22;3159;52.414;9.784;2023-03-01T16:08:36;8.40;99.90
6252;DHT22;3159;52.414;9.784;2023-03-01T16:11:04;8.40;99.90
6252;DHT22;3159;52.414;9.784;2023-03-01T16:13:32;8.10;99.90
6252;DHT22;3159;52.414;9.784;2023-03-01T16:15:59;7.90;99.90
6252;DHT22;3159;52.414;9.784;2023-03-01T16:18:25;8.00;99.90
6252;DHT22;3159;52.414;9.784;2023-03-01T16:20:52;8.10;99.90
6252;DHT22;3159;52.414;9.784;2023-03-01T16:23:19;8.10;99.90
6252;DHT22;3159;52.414;9.784;2023-03-01T16:25:46;8.00;99.90
6252;DHT22;3159;52.414;9.784;2023-03-01T16:28:14;7.90;99.90
6252;DHT22;3159;52.414;9.784;2023-03-01T16:30:45;7.90;99.90
6252;DHT22;3159;52.414;9.784;2023-03-01T16:33:12;8.00;99.90
6252;DHT22;3159;52.414;9.784;2023-03-01T16:35:40;7.90;99.90
6252;DHT22;3159;52.414;9.784;2023-03-01T16:38:07;7.90;99.90
6252;DHT22;3159;52.414;9.784;2023-03-01T16:40:33;7.80;99.90
6252;DHT22;3159;52.414;9.784;2023-03-01T16:43:00;7.70;99.90